createdAt,value
2023-04-20T00:02:09.566Z,5.03
2023-04-20T00:04:36.609Z,4.33
2023-04-20T00:07:04.473Z,5.50
2023-04-20T00:09:31.874Z,5.00
2023-04-20T00:11:58.521Z,4.63
2023-04-20T00:14:25.302Z,5.30
2023-04-20T00:16:52.031Z,4.33
2023-04-20T00:19:18.787Z,4.80
2023-04-20T00:21:46.300Z,4.57
2023-04-20T00:24:13.011Z,4.53
2023-04-20T00:26:39.677Z,4.40
2023-04-20T00:29:06.339Z,4.40
2023-04-20T00:31:33.098Z,4.53
2023-04-20T00:33:59.762Z,3.73
2023-04-20T00:36:27.093Z,4.10
2023-04-20T00:38:53.781Z,4.23
2023-04-20T00:41:21.194Z,4.23
2023-04-20T00:43:52.259Z,4.43
2023-04-20T00:46:19.559Z,4.20
2023-04-20T00:48:46.461Z,4.27
2023-04-20T00:51:13.503Z,4.23
2023-04-20T00:53:40.482Z,4.07
2023-04-20T00:56:07.328Z,4.30
2023-04-20T00:58:34.028Z,4.10
2023-04-20T01:01:00.857Z,4.27
2023-04-20T01:03:27.864Z,4.17
2023-04-20T01:05:54.750Z,4.37
2023-04-20T01:08:25.262Z,3.77
2023-04-20T01:10:51.911Z,4.17
2023-04-20T01:13:18.582Z,4.23
2023-04-20T01:15:45.299Z,4.17
2023-04-20T01:18:11.974Z,4.30
2023-04-20T01:20:38.634Z,4.53
2023-04-20T01:23:05.476Z,4.17
2023-04-20T01:25:32.231Z,4.40
2023-04-20T01:27:58.900Z,5.07
2023-04-20T01:30:25.554Z,4.60
2023-04-20T01:32:52.342Z,4.50
2023-04-20T01:35:19.044Z,4.30
2023-04-20T01:37:45.922Z,4.90
2023-04-20T01:40:13.249Z,4.83
2023-04-20T01:42:40.272Z,4.30
2023-04-20T01:45:07.465Z,3.80
2023-04-20T01:47:35.697Z,4.70
2023-04-20T01:50:02.538Z,4.30
2023-04-20T01:52:29.174Z,4.60
2023-04-20T01:54:55.894Z,4.20
2023-04-20T01:57:24.748Z,4.57
2023-04-20T01:59:51.564Z,5.07
2023-04-20T02:02:18.324Z,4.47
2023-04-20T02:04:45.198Z,5.43
2023-04-20T02:07:11.833Z,6.47
2023-04-20T02:09:38.759Z,6.23
2023-04-20T02:12:05.527Z,5.83
2023-04-20T02:14:32.184Z,4.90
2023-04-20T02:16:59.250Z,5.00
2023-04-20T02:19:26.004Z,5.00
2023-04-20T02:21:52.655Z,4.30
2023-04-20T02:24:19.334Z,4.47
2023-04-20T02:26:46.023Z,4.23
2023-04-20T02:29:12.681Z,4.47
2023-04-20T02:31:39.388Z,5.37
2023-04-20T02:34:09.167Z,3.90
2023-04-20T02:36:35.812Z,4.17
2023-04-20T02:39:05.670Z,4.07
2023-04-20T02:41:33.928Z,4.10
2023-04-20T02:44:03.139Z,4.33
2023-04-20T02:46:32.009Z,4.03
2023-04-20T02:48:58.743Z,4.57
2023-04-20T02:51:26.194Z,4.57
2023-04-20T02:53:53.849Z,4.00
2023-04-20T02:56:28.343Z,4.70
2023-04-20T02:58:59.452Z,4.23
2023-04-20T03:01:52.168Z,4.50
2023-04-20T03:04:22.121Z,4.57
2023-04-20T03:06:55.733Z,4.43
2023-04-20T03:09:27.786Z,4.40
2023-04-20T03:11:59.378Z,4.83
2023-04-20T03:14:43.187Z,4.67
2023-04-20T03:17:09.892Z,5.33
2023-04-20T03:19:36.729Z,5.00
2023-04-20T03:22:04.382Z,4.83
2023-04-20T03:24:32.137Z,4.60
2023-04-20T03:27:02.839Z,4.87
2023-04-20T03:29:37.194Z,5.27
2023-04-20T03:32:03.951Z,5.77
2023-04-20T03:34:31.564Z,5.43
2023-04-20T03:36:58.256Z,5.30
2023-04-20T03:39:24.904Z,5.47
2023-04-20T03:41:51.582Z,5.77
2023-04-20T03:44:18.256Z,5.97
2023-04-20T03:46:45.094Z,6.53
2023-04-20T03:49:11.957Z,5.60
2023-04-20T03:51:40.489Z,5.30
2023-04-20T03:54:07.381Z,5.40
2023-04-20T03:56:34.634Z,6.00
2023-04-20T03:59:01.594Z,6.07
2023-04-20T04:01:28.501Z,5.30
2023-04-20T04:03:55.368Z,5.80
2023-04-20T04:06:22.338Z,5.93
2023-04-20T04:08:49.143Z,5.73
2023-04-20T04:11:15.853Z,6.17
2023-04-20T04:13:42.565Z,5.67
2023-04-20T04:16:09.800Z,6.13
2023-04-20T04:18:36.602Z,6.40
2023-04-20T04:21:10.188Z,5.97
2023-04-20T04:23:38.397Z,6.17
2023-04-20T04:26:12.751Z,6.50
2023-04-20T04:28:45.721Z,6.57
2023-04-20T04:31:19.613Z,6.50
2023-04-20T04:33:47.357Z,6.57
2023-04-20T04:36:26.972Z,7.37
2023-04-20T04:38:55.776Z,6.17
2023-04-20T04:41:23.364Z,6.33
2023-04-20T04:43:50.877Z,6.80
2023-04-20T04:46:25.324Z,6.67
2023-04-20T04:48:52.128Z,6.63
2023-04-20T04:51:18.845Z,7.03
2023-04-20T04:53:47.368Z,6.57
2023-04-20T04:56:14.231Z,7.00
2023-04-20T04:58:41.011Z,6.77
2023-04-20T05:01:07.666Z,6.83
2023-04-20T05:03:34.478Z,6.63
2023-04-20T05:06:01.245Z,5.93
2023-04-20T05:08:27.884Z,6.30
2023-04-20T05:10:54.613Z,6.33
2023-04-20T05:13:21.299Z,6.07
2023-04-20T05:15:47.967Z,6.60
2023-04-20T05:18:14.689Z,5.97
2023-04-20T05:20:41.424Z,6.80
2023-04-20T05:23:08.420Z,6.73
2023-04-20T05:25:35.122Z,6.13
2023-04-20T05:28:01.804Z,6.40
2023-04-20T05:30:28.440Z,6.87
2023-04-20T05:32:55.153Z,6.67
2023-04-20T05:35:22.304Z,6.73
2023-04-20T05:37:49.220Z,6.63
2023-04-20T05:40:15.995Z,7.17
2023-04-20T05:42:42.920Z,6.37
2023-04-20T05:45:11.018Z,7.00
2023-04-20T05:47:37.854Z,6.43
2023-04-20T05:50:04.879Z,7.03
2023-04-20T05:52:31.657Z,7.33
2023-04-20T05:54:59.394Z,7.07
2023-04-20T05:57:26.186Z,6.80
2023-04-20T05:59:52.999Z,6.67
2023-04-20T06:02:19.746Z,6.73
2023-04-20T06:04:46.702Z,6.63
2023-04-20T06:07:13.509Z,7.00
2023-04-20T06:09:40.819Z,6.80
2023-04-20T06:12:09.150Z,6.93
2023-04-20T06:14:35.904Z,6.90
2023-04-20T06:17:04.762Z,7.63
2023-04-20T06:19:31.646Z,7.20
2023-04-20T06:22:00.707Z,7.13
2023-04-20T06:24:27.816Z,7.23
2023-04-20T06:26:54.843Z,6.70
2023-04-20T06:29:21.561Z,6.47
2023-04-20T06:31:48.267Z,6.67
2023-04-20T06:34:16.143Z,6.80
2023-04-20T06:36:43.558Z,6.30
2023-04-20T06:39:11.396Z,6.60
2023-04-20T06:41:38.718Z,6.00
2023-04-20T06:44:06.722Z,6.27
2023-04-20T06:46:33.455Z,6.63
2023-04-20T06:49:00.209Z,7.00
2023-04-20T06:51:28.299Z,6.30
2023-04-20T06:53:55.568Z,6.30
2023-04-20T06:56:22.202Z,5.77
2023-04-20T06:58:48.899Z,5.97
2023-04-20T07:01:15.655Z,5.60
2023-04-20T07:03:42.902Z,5.63
2023-04-20T07:06:11.288Z,5.80
2023-04-20T07:08:38.851Z,6.03
2023-04-20T07:11:05.560Z,5.67
2023-04-20T07:13:33.883Z,5.30
2023-04-20T07:16:01.061Z,5.70
2023-04-20T07:18:28.144Z,5.00
2023-04-20T07:20:55.221Z,5.27
2023-04-20T07:23:21.881Z,5.60
2023-04-20T07:25:48.590Z,5.80
2023-04-20T07:28:15.445Z,5.47
2023-04-20T07:30:42.251Z,5.00
2023-04-20T07:33:09.125Z,4.97
2023-04-20T07:35:36.018Z,5.00
2023-04-20T07:38:02.724Z,5.30
2023-04-20T07:40:29.349Z,5.47
2023-04-20T07:42:56.031Z,5.00
2023-04-20T07:45:24.050Z,5.37
2023-04-20T07:47:52.361Z,5.53
2023-04-20T07:50:19.200Z,5.50
2023-04-20T07:52:45.912Z,5.40
2023-04-20T07:55:13.962Z,5.33
2023-04-20T07:57:41.498Z,5.17
2023-04-20T08:00:09.635Z,5.40
2023-04-20T08:02:45.470Z,5.53
2023-04-20T08:05:12.616Z,5.53
2023-04-20T08:07:39.512Z,5.17
2023-04-20T08:10:06.784Z,5.40
2023-04-20T08:12:33.494Z,5.33
2023-04-20T08:15:01.838Z,5.13
2023-04-20T08:17:28.595Z,5.23
2023-04-20T08:19:55.362Z,5.37
2023-04-20T08:22:22.024Z,5.83
2023-04-20T08:24:48.768Z,5.07
2023-04-20T08:27:15.398Z,5.23
2023-04-20T08:29:42.002Z,5.50
2023-04-20T08:32:09.453Z,5.20
2023-04-20T08:34:36.443Z,5.23
2023-04-20T08:37:03.553Z,5.70
2023-04-20T08:39:30.354Z,5.13
2023-04-20T08:41:57.464Z,5.47
2023-04-20T08:44:24.629Z,5.67
2023-04-20T08:46:51.603Z,5.57
2023-04-20T08:49:19.136Z,4.80
2023-04-20T08:51:46.336Z,5.67
2023-04-20T08:54:13.199Z,5.30
2023-04-20T08:56:41.012Z,5.43
2023-04-20T08:59:10.321Z,5.80
2023-04-20T09:01:37.632Z,6.30
2023-04-20T09:04:15.542Z,5.67
2023-04-20T09:06:46.125Z,5.40
2023-04-20T09:09:13.030Z,5.33
2023-04-20T09:11:40.424Z,6.57
2023-04-20T09:14:09.937Z,6.07
2023-04-20T09:16:39.652Z,6.23
2023-04-20T09:19:08.956Z,6.13
2023-04-20T09:21:36.311Z,5.90
2023-04-20T09:24:06.202Z,5.60
2023-04-20T09:26:34.316Z,5.60
2023-04-20T09:29:04.463Z,4.90
2023-04-20T09:31:31.141Z,5.87
2023-04-20T09:34:01.930Z,6.03
2023-04-20T09:36:36.394Z,5.67
2023-04-20T09:39:10.502Z,5.87
2023-04-20T09:41:37.836Z,6.13
2023-04-20T09:44:04.794Z,5.73
2023-04-20T09:46:35.360Z,6.20
2023-04-20T09:49:03.469Z,6.67
2023-04-20T09:51:31.573Z,6.30
2023-04-20T09:53:59.553Z,5.90
2023-04-20T09:56:27.586Z,6.27
2023-04-20T09:58:54.910Z,6.43
2023-04-20T10:01:22.549Z,6.20
2023-04-20T10:03:50.532Z,6.30
2023-04-20T10:06:21.683Z,6.90
2023-04-20T10:08:49.986Z,6.33
2023-04-20T10:11:26.657Z,6.80
2023-04-20T10:13:55.071Z,6.80
2023-04-20T10:16:21.978Z,6.73
2023-04-20T10:18:58.779Z,6.30
2023-04-20T10:21:25.524Z,6.70
2023-04-20T10:23:52.904Z,7.33
2023-04-20T10:26:19.695Z,6.90
2023-04-20T10:28:46.766Z,6.70
2023-04-20T10:31:14.961Z,6.67
2023-04-20T10:33:55.135Z,7.40
2023-04-20T10:36:32.112Z,7.10
2023-04-20T10:38:58.947Z,6.37
2023-04-20T10:41:25.684Z,6.17
2023-04-20T10:43:52.607Z,7.03
2023-04-20T10:46:19.288Z,6.83
2023-04-20T10:48:52.689Z,6.33
2023-04-20T10:51:19.910Z,6.37
2023-04-20T10:53:46.582Z,7.10
2023-04-20T10:56:13.285Z,6.37
2023-04-20T10:58:41.114Z,6.30
2023-04-20T11:01:07.832Z,6.13
2023-04-20T11:03:35.514Z,6.07
2023-04-20T11:06:03.787Z,6.47
2023-04-20T11:08:37.662Z,6.13
2023-04-20T11:11:06.534Z,6.07
2023-04-20T11:13:34.496Z,6.47
2023-04-20T11:16:09.440Z,5.13
2023-04-20T11:18:36.084Z,6.63
2023-04-20T11:21:02.805Z,5.80
2023-04-20T11:23:37.111Z,6.10
2023-04-20T11:26:03.819Z,6.00
2023-04-20T11:28:34.477Z,5.83
2023-04-20T11:31:01.827Z,5.40
2023-04-20T11:33:29.493Z,5.40
2023-04-20T11:36:00.018Z,4.87
2023-04-20T11:38:27.640Z,4.93
2023-04-20T11:40:54.295Z,5.50
2023-04-20T11:43:20.961Z,5.60
2023-04-20T11:45:47.861Z,5.00
2023-04-20T11:48:14.553Z,5.43
2023-04-20T11:50:42.597Z,5.30
2023-04-20T11:53:10.246Z,5.30
2023-04-20T11:55:36.918Z,5.00
2023-04-20T11:58:03.931Z,5.00
2023-04-20T12:00:30.763Z,4.77
2023-04-20T12:02:57.823Z,4.60
2023-04-20T12:05:24.692Z,4.60
2023-04-20T12:07:51.696Z,4.60
2023-04-20T12:10:18.394Z,4.50
2023-04-20T12:12:45.129Z,4.73
2023-04-20T12:15:12.480Z,4.80
2023-04-20T12:17:39.252Z,5.10
2023-04-20T12:20:08.537Z,4.90
2023-04-20T12:22:35.358Z,4.80
2023-04-20T12:25:02.049Z,5.10
2023-04-20T12:27:28.812Z,5.03
2023-04-20T12:29:56.024Z,4.20
2023-04-20T12:32:22.764Z,4.80
2023-04-20T12:34:49.498Z,5.07
2023-04-20T12:37:16.189Z,4.90
2023-04-20T12:39:42.877Z,5.70
2023-04-20T12:42:09.596Z,5.47
2023-04-20T12:44:36.257Z,5.40
2023-04-20T12:47:02.976Z,4.93
2023-04-20T12:49:30.980Z,5.50
2023-04-20T12:51:58.554Z,5.30
2023-04-20T12:54:25.214Z,5.70
2023-04-20T12:56:51.945Z,5.87
2023-04-20T12:59:18.710Z,5.97
2023-04-20T13:01:45.465Z,6.20
2023-04-20T13:04:12.209Z,5.60
2023-04-20T13:06:39.034Z,6.17
2023-04-20T13:09:06.893Z,6.83
2023-04-20T13:11:33.551Z,5.50
2023-04-20T13:14:00.785Z,6.37
2023-04-20T13:16:28.574Z,6.50
2023-04-20T13:18:55.350Z,6.43
2023-04-20T13:21:22.052Z,6.60
2023-04-20T13:23:48.785Z,6.67
2023-04-20T13:26:15.569Z,6.30
2023-04-20T13:28:42.244Z,6.00
2023-04-20T13:31:08.897Z,6.30
2023-04-20T13:33:35.645Z,6.60
2023-04-20T13:36:02.613Z,5.87
2023-04-20T13:38:29.283Z,6.87
2023-04-20T13:40:56.017Z,5.43
2023-04-20T13:43:22.754Z,5.90
2023-04-20T13:45:49.441Z,6.50
2023-04-20T13:48:16.214Z,6.30
2023-04-20T13:50:42.885Z,6.40
2023-04-20T13:53:09.562Z,6.10
2023-04-20T13:55:36.261Z,6.73
2023-04-20T13:58:02.977Z,7.10
2023-04-20T14:00:29.630Z,7.03
2023-04-20T14:02:56.511Z,6.80
2023-04-20T14:05:23.289Z,6.90
2023-04-20T14:07:49.978Z,7.20
2023-04-20T14:10:16.647Z,6.97
2023-04-20T14:12:43.316Z,6.87
2023-04-20T14:15:10.263Z,7.33
2023-04-20T14:17:37.044Z,7.67
2023-04-20T14:20:04.182Z,7.00
2023-04-20T14:22:35.739Z,7.17
2023-04-20T14:25:03.421Z,7.43
2023-04-20T14:27:30.904Z,7.60
2023-04-20T14:29:57.606Z,7.10
2023-04-20T14:32:24.284Z,7.43
2023-04-20T14:34:51.245Z,7.87
2023-04-20T14:37:17.922Z,7.47
2023-04-20T14:39:44.604Z,7.67
2023-04-20T14:42:12.367Z,7.43
2023-04-20T14:44:39.055Z,7.03
2023-04-20T14:47:05.748Z,7.80
2023-04-20T14:49:32.441Z,7.77
2023-04-20T14:51:59.104Z,8.43
2023-04-20T14:54:25.746Z,7.80
2023-04-20T14:56:52.572Z,7.83
2023-04-20T14:59:19.356Z,8.53
2023-04-20T15:01:55.154Z,8.13
2023-04-20T15:04:28.277Z,13.93
2023-04-20T15:06:55.181Z,7.77
2023-04-20T15:09:21.899Z,7.90
2023-04-20T15:11:48.586Z,7.07
2023-04-20T15:14:15.471Z,7.83
2023-04-20T15:16:42.345Z,7.90
2023-04-20T15:19:09.059Z,7.93
2023-04-20T15:21:35.747Z,8.23
2023-04-20T15:24:02.445Z,8.17
2023-04-20T15:26:29.146Z,8.40
2023-04-20T15:28:57.382Z,8.00
2023-04-20T15:31:24.125Z,7.80
2023-04-20T15:33:50.921Z,7.60
2023-04-20T15:36:18.174Z,6.83
2023-04-20T15:38:45.180Z,7.20
2023-04-20T15:41:11.851Z,7.00
2023-04-20T15:43:39.332Z,7.70
2023-04-20T15:46:06.258Z,7.30
2023-04-20T15:48:33.062Z,6.90
2023-04-20T15:50:59.852Z,8.00
2023-04-20T15:53:26.745Z,6.60
2023-04-20T15:55:54.565Z,7.00
2023-04-20T15:58:21.304Z,8.07
2023-04-20T16:00:47.960Z,7.87
2023-04-20T16:03:14.887Z,7.43
2023-04-20T16:05:41.736Z,6.77
2023-04-20T16:08:08.533Z,8.73
2023-04-20T16:10:35.351Z,8.10
2023-04-20T16:13:03.410Z,9.30
2023-04-20T16:15:30.208Z,7.63
2023-04-20T16:17:56.929Z,7.83
2023-04-20T16:20:23.610Z,8.67
2023-04-20T16:22:50.328Z,8.07
2023-04-20T16:25:22.562Z,7.57
2023-04-20T16:27:50.774Z,8.53
2023-04-20T16:30:17.600Z,8.00
2023-04-20T16:32:44.348Z,8.23
2023-04-20T16:35:13.724Z,8.37
2023-04-20T16:37:40.467Z,8.67
2023-04-20T16:40:09.543Z,8.80
2023-04-20T16:42:36.294Z,8.00
2023-04-20T16:45:04.115Z,9.10
2023-04-20T16:47:30.771Z,7.63
2023-04-20T16:49:57.935Z,8.90
2023-04-20T16:52:24.674Z,8.77
2023-04-20T16:54:51.309Z,7.90
2023-04-20T16:57:17.953Z,8.87
2023-04-20T16:59:45.805Z,9.20
2023-04-20T17:02:12.868Z,8.53
2023-04-20T17:04:39.712Z,9.43
2023-04-20T17:07:06.552Z,8.70
2023-04-20T17:09:33.386Z,8.70
2023-04-20T17:12:01.313Z,9.77
2023-04-20T17:14:28.056Z,9.17
2023-04-20T17:16:56.434Z,8.93
2023-04-20T17:19:23.404Z,8.97
2023-04-20T17:21:50.094Z,9.37
2023-04-20T17:24:17.061Z,9.50
2023-04-20T17:26:44.372Z,8.77
2023-04-20T17:29:11.020Z,9.03
2023-04-20T17:31:37.730Z,9.63
2023-04-20T17:34:04.487Z,9.73
2023-04-20T17:36:31.779Z,9.23
2023-04-20T17:38:58.396Z,8.67
2023-04-20T17:41:25.019Z,9.40
2023-04-20T17:43:51.776Z,9.73
2023-04-20T17:46:18.550Z,9.97
2023-04-20T17:48:45.219Z,10.50
2023-04-20T17:51:14.881Z,9.93
2023-04-20T17:53:41.610Z,9.00
2023-04-20T17:56:08.250Z,9.77
2023-04-20T17:58:34.883Z,9.23
2023-04-20T18:01:01.631Z,9.93
2023-04-20T18:03:28.673Z,10.13
2023-04-20T18:05:55.656Z,9.73
2023-04-20T18:08:23.176Z,10.57
2023-04-20T18:10:49.937Z,11.03
2023-04-20T18:13:16.797Z,10.80
2023-04-20T18:15:43.554Z,10.67
2023-04-20T18:18:10.531Z,10.43
2023-04-20T18:20:37.292Z,11.10
2023-04-20T18:23:04.054Z,10.33
2023-04-20T18:25:30.745Z,10.90
2023-04-20T18:27:57.461Z,10.53
2023-04-20T18:30:24.252Z,10.47
2023-04-20T18:32:51.099Z,11.00
2023-04-20T18:35:19.250Z,10.90
2023-04-20T18:37:45.892Z,10.83
2023-04-20T18:40:16.009Z,10.67
2023-04-20T18:42:43.155Z,10.83
2023-04-20T18:45:11.270Z,11.23
2023-04-20T18:47:38.153Z,11.30
2023-04-20T18:50:05.663Z,11.73
2023-04-20T18:52:32.962Z,11.23
2023-04-20T18:54:59.663Z,11.40
2023-04-20T18:57:28.404Z,11.47
2023-04-20T18:59:58.071Z,11.33
2023-04-20T19:02:24.893Z,11.63
2023-04-20T19:04:51.885Z,11.43
2023-04-20T19:07:18.621Z,11.03
2023-04-20T19:09:45.477Z,10.80
2023-04-20T19:12:12.221Z,10.73
2023-04-20T19:14:38.880Z,11.87
2023-04-20T19:17:08.897Z,11.50
2023-04-20T19:19:35.642Z,11.60
2023-04-20T19:22:03.420Z,11.87
2023-04-20T19:24:30.535Z,11.57
2023-04-20T19:26:57.448Z,11.40
2023-04-20T19:29:24.091Z,11.40
2023-04-20T19:31:50.906Z,11.70
2023-04-20T19:34:17.903Z,11.83
2023-04-20T19:36:44.749Z,12.50
2023-04-20T19:39:11.501Z,12.10
2023-04-20T19:41:38.246Z,12.53
2023-04-20T19:44:06.134Z,11.90
2023-04-20T19:46:33.404Z,18.30
2023-04-20T19:49:00.853Z,13.20
2023-04-20T19:51:27.587Z,12.87
2023-04-20T19:53:54.350Z,12.83
2023-04-20T19:56:21.101Z,13.47
2023-04-20T19:58:47.935Z,13.73
2023-04-20T20:01:14.854Z,13.23
2023-04-20T20:03:42.849Z,13.60
2023-04-20T20:06:09.781Z,13.00
2023-04-20T20:08:36.530Z,14.90
2023-04-20T20:11:03.413Z,14.30
2023-04-20T20:13:30.292Z,14.07
2023-04-20T20:15:56.969Z,14.27
2023-04-20T20:18:24.186Z,14.23
2023-04-20T20:20:51.265Z,15.40
2023-04-20T20:23:18.073Z,15.13
2023-04-20T20:25:44.764Z,14.27
2023-04-20T20:28:11.450Z,15.57
2023-04-20T20:30:38.182Z,14.13
2023-04-20T20:33:04.883Z,14.50
2023-04-20T20:35:32.833Z,14.33
2023-04-20T20:37:59.778Z,14.43
2023-04-20T20:40:26.507Z,15.37
2023-04-20T20:42:54.217Z,15.43
2023-04-20T20:45:21.726Z,15.37
2023-04-20T20:47:48.598Z,15.77
2023-04-20T20:50:15.955Z,15.83
2023-04-20T20:52:42.780Z,15.80
2023-04-20T20:55:09.775Z,16.00
2023-04-20T20:57:36.536Z,16.33
2023-04-20T21:00:07.509Z,16.43
2023-04-20T21:02:34.330Z,15.50
2023-04-20T21:05:01.238Z,16.10
2023-04-20T21:07:28.028Z,16.27
2023-04-20T21:09:54.845Z,15.50
2023-04-20T21:12:21.533Z,15.20
2023-04-20T21:14:51.107Z,16.63
2023-04-20T21:17:18.518Z,15.20
2023-04-20T21:19:45.368Z,16.30
2023-04-20T21:22:12.062Z,16.00
2023-04-20T21:24:39.157Z,15.77
2023-04-20T21:27:05.819Z,15.93
2023-04-20T21:29:32.549Z,16.03
2023-04-20T21:31:59.219Z,15.47
2023-04-20T21:34:25.969Z,15.27
2023-04-20T21:36:52.606Z,14.53
2023-04-20T21:39:19.375Z,16.50
2023-04-20T21:41:46.186Z,15.30
2023-04-20T21:44:12.881Z,15.63
2023-04-20T21:46:39.667Z,16.23
2023-04-20T21:49:06.427Z,15.10
2023-04-20T21:51:33.806Z,14.80
2023-04-20T21:54:00.543Z,15.30
2023-04-20T21:56:27.227Z,14.70
2023-04-20T21:58:53.872Z,16.00
2023-04-20T22:01:20.761Z,15.57
2023-04-20T22:03:47.734Z,14.23
2023-04-20T22:06:15.156Z,15.47
2023-04-20T22:08:41.840Z,14.83
2023-04-20T22:11:08.902Z,15.57
2023-04-20T22:13:35.704Z,13.70
2023-04-20T22:16:02.435Z,14.27
2023-04-20T22:18:29.113Z,14.13
2023-04-20T22:20:55.773Z,14.67
2023-04-20T22:23:22.461Z,14.57
2023-04-20T22:25:49.136Z,15.30
2023-04-20T22:28:15.888Z,14.63
2023-04-20T22:30:42.794Z,15.50
2023-04-20T22:33:09.835Z,15.13
2023-04-20T22:35:36.491Z,14.97
2023-04-20T22:38:03.133Z,15.20
2023-04-20T22:40:29.794Z,14.90
2023-04-20T22:42:56.508Z,14.23
2023-04-20T22:45:23.200Z,15.87
2023-04-20T22:47:49.923Z,14.53
2023-04-20T22:50:16.685Z,15.17
2023-04-20T22:52:43.581Z,16.00
2023-04-20T22:55:11.672Z,14.53
2023-04-20T22:57:38.960Z,15.57
2023-04-20T23:00:10.156Z,15.23
2023-04-20T23:02:37.269Z,15.30
2023-04-20T23:05:05.580Z,15.27
2023-04-20T23:07:32.900Z,14.93
2023-04-20T23:10:00.037Z,15.10
2023-04-20T23:12:29.210Z,15.30
2023-04-20T23:14:56.552Z,15.20
2023-04-20T23:17:23.368Z,16.13
2023-04-20T23:19:50.746Z,15.33
2023-04-20T23:22:17.374Z,16.07
2023-04-20T23:24:44.041Z,15.77
2023-04-20T23:27:10.858Z,15.57
2023-04-20T23:29:37.517Z,15.47
2023-04-20T23:32:04.342Z,15.40
2023-04-20T23:34:31.105Z,16.57
2023-04-20T23:36:57.905Z,15.63
2023-04-20T23:39:24.629Z,15.33
2023-04-20T23:41:51.379Z,16.43
2023-04-20T23:44:18.101Z,17.03
2023-04-20T23:46:44.733Z,16.70
2023-04-20T23:49:11.434Z,15.90
2023-04-20T23:51:38.126Z,15.17
2023-04-20T23:54:04.799Z,16.23
2023-04-20T23:56:31.503Z,16.00
2023-04-20T23:58:58.620Z,16.80
